createdAt,value
2023-10-04T00:01:00.326Z,8.00
2023-10-04T00:02:20.559Z,7.90
2023-10-04T00:03:25.967Z,7.00
2023-10-04T00:04:31.470Z,7.00
2023-10-04T00:05:37.641Z,8.10
2023-10-04T00:06:41.689Z,7.30
2023-10-04T00:07:48.458Z,8.00
2023-10-04T00:08:53.108Z,8.70
2023-10-04T00:09:58.034Z,8.10
2023-10-04T00:11:04.343Z,6.80
2023-10-04T00:12:09.500Z,7.60
2023-10-04T00:13:14.215Z,6.90
2023-10-04T00:14:18.068Z,7.20
2023-10-04T00:15:26.379Z,6.90
2023-10-04T00:16:33.420Z,6.90
2023-10-04T00:17:41.220Z,7.20
2023-10-04T00:18:44.639Z,7.90
2023-10-04T00:19:48.404Z,7.20
2023-10-04T00:20:51.847Z,6.80
2023-10-04T00:21:55.773Z,7.20
2023-10-04T00:22:59.644Z,7.50
2023-10-04T00:24:05.820Z,7.50
2023-10-04T00:25:12.902Z,8.40
2023-10-04T00:26:16.674Z,8.00
2023-10-04T00:27:20.870Z,8.60
2023-10-04T00:28:25.050Z,8.90
2023-10-04T00:29:28.851Z,7.80
2023-10-04T00:30:33.468Z,8.00
2023-10-04T00:31:38.417Z,8.00
2023-10-04T00:32:42.015Z,8.50
2023-10-04T00:33:45.463Z,8.40
2023-10-04T00:34:48.737Z,8.10
2023-10-04T00:35:52.106Z,7.60
2023-10-04T00:36:56.051Z,7.40
2023-10-04T00:38:02.444Z,7.60
2023-10-04T00:39:07.977Z,9.00
2023-10-04T00:40:18.186Z,7.60
2023-10-04T00:41:23.087Z,8.70
2023-10-04T00:42:29.154Z,7.80
2023-10-04T00:43:33.507Z,7.50
2023-10-04T00:44:37.002Z,8.10
2023-10-04T00:45:45.603Z,8.20
2023-10-04T00:46:49.843Z,9.00
2023-10-04T00:47:59.476Z,8.20
2023-10-04T00:49:05.860Z,8.80
2023-10-04T00:50:18.571Z,8.00
2023-10-04T00:51:24.314Z,7.30
2023-10-04T00:52:28.697Z,7.40
2023-10-04T00:53:34.481Z,7.60
2023-10-04T00:54:38.255Z,8.20
2023-10-04T00:55:47.706Z,7.60
2023-10-04T00:56:52.298Z,8.20
2023-10-04T00:57:58.728Z,8.00
2023-10-04T00:59:04.974Z,8.90
2023-10-04T01:00:12.461Z,8.50
2023-10-04T01:01:16.099Z,7.70
2023-10-04T01:02:21.427Z,7.90
2023-10-04T01:03:29.104Z,7.90
2023-10-04T01:04:33.952Z,7.90
2023-10-04T01:05:41.977Z,8.10
2023-10-04T01:06:45.993Z,7.30
2023-10-04T01:07:50.729Z,7.60
2023-10-04T01:08:56.320Z,7.80
2023-10-04T01:09:59.641Z,6.80
2023-10-04T01:11:03.058Z,7.20
2023-10-04T01:12:07.269Z,8.00
2023-10-04T01:13:12.404Z,8.20
2023-10-04T01:14:24.690Z,7.50
2023-10-04T01:15:36.850Z,8.10
2023-10-04T01:16:42.569Z,7.10
2023-10-04T01:17:46.296Z,8.60
2023-10-04T01:18:50.537Z,8.30
2023-10-04T01:19:54.447Z,8.10
2023-10-04T01:20:58.023Z,7.10
2023-10-04T01:22:06.976Z,8.00
2023-10-04T01:23:13.564Z,7.90
2023-10-04T01:24:18.081Z,7.40
2023-10-04T01:25:21.673Z,7.00
2023-10-04T01:26:26.624Z,7.60
2023-10-04T01:27:30.950Z,6.40
2023-10-04T01:28:34.712Z,7.20
2023-10-04T01:29:39.714Z,7.00
2023-10-04T01:30:45.539Z,7.80
2023-10-04T01:31:50.454Z,7.80
2023-10-04T01:32:59.695Z,7.20
2023-10-04T01:34:03.843Z,7.90
2023-10-04T01:35:09.070Z,7.40
2023-10-04T01:36:12.205Z,8.30
2023-10-04T01:37:16.377Z,6.80
2023-10-04T01:38:32.668Z,7.40
2023-10-04T01:39:37.608Z,7.60
2023-10-04T01:40:43.613Z,7.40
2023-10-04T01:41:48.452Z,7.70
2023-10-04T01:42:52.022Z,8.20
2023-10-04T01:44:02.021Z,8.60
2023-10-04T01:45:10.314Z,8.30
2023-10-04T01:46:14.002Z,8.70
2023-10-04T01:47:20.705Z,8.40
2023-10-04T01:48:24.322Z,9.30
2023-10-04T01:49:27.705Z,9.00
2023-10-04T01:50:31.275Z,9.50
2023-10-04T01:51:35.725Z,10.00
2023-10-04T01:52:39.795Z,8.60
2023-10-04T01:53:44.288Z,8.40
2023-10-04T01:54:47.708Z,7.70
2023-10-04T01:55:51.250Z,8.60
2023-10-04T01:56:56.057Z,8.20
2023-10-04T01:57:59.484Z,9.40
2023-10-04T01:59:03.605Z,8.20
2023-10-04T02:00:18.536Z,7.80
2023-10-04T02:01:22.299Z,8.70
2023-10-04T02:02:28.648Z,7.90
2023-10-04T02:03:34.343Z,7.70
2023-10-04T02:04:38.422Z,7.90
2023-10-04T02:05:42.027Z,8.40
2023-10-04T02:06:45.238Z,8.60
2023-10-04T02:07:48.853Z,8.10
2023-10-04T02:08:52.413Z,7.90
2023-10-04T02:09:56.048Z,9.60
2023-10-04T02:10:59.943Z,8.30
2023-10-04T02:12:04.632Z,9.20
2023-10-04T02:13:10.560Z,8.90
2023-10-04T02:14:14.385Z,8.90
2023-10-04T02:15:18.477Z,8.00
2023-10-04T02:16:21.988Z,8.20
2023-10-04T02:17:25.925Z,9.00
2023-10-04T02:18:29.823Z,7.90
2023-10-04T02:19:33.351Z,8.20
2023-10-04T02:20:37.984Z,7.60
2023-10-04T02:21:41.992Z,8.90
2023-10-04T02:22:45.884Z,8.40
2023-10-04T02:23:50.480Z,9.20
2023-10-04T02:24:54.524Z,9.50
2023-10-04T02:25:58.212Z,9.00
2023-10-04T02:27:07.785Z,8.90
2023-10-04T02:28:23.873Z,8.60
2023-10-04T02:29:27.935Z,7.60
2023-10-04T02:30:31.527Z,8.90
2023-10-04T02:31:36.652Z,7.60
2023-10-04T02:32:41.719Z,8.30
2023-10-04T02:33:46.865Z,7.70
2023-10-04T02:34:51.630Z,8.50
2023-10-04T02:35:57.186Z,9.60
2023-10-04T02:37:00.518Z,8.60
2023-10-04T02:38:17.017Z,8.10
2023-10-04T02:39:25.217Z,8.90
2023-10-04T02:41:33.345Z,9.70
2023-10-04T02:42:37.297Z,7.90
2023-10-04T02:43:40.925Z,9.90
2023-10-04T02:44:44.202Z,8.80
2023-10-04T02:45:49.562Z,8.00
2023-10-04T02:46:53.230Z,8.40
2023-10-04T02:47:57.274Z,8.00
2023-10-04T02:49:01.803Z,7.20
2023-10-04T02:50:11.570Z,8.30
2023-10-04T02:51:15.097Z,8.00
2023-10-04T02:52:18.585Z,8.20
2023-10-04T02:53:25.483Z,7.90
2023-10-04T02:54:28.824Z,8.70
2023-10-04T02:55:32.964Z,8.40
2023-10-04T02:56:42.571Z,8.50
2023-10-04T02:57:50.003Z,7.90
2023-10-04T02:58:53.847Z,8.50
2023-10-04T02:59:59.268Z,7.00
2023-10-04T03:01:02.699Z,7.70
2023-10-04T03:02:06.064Z,8.20
2023-10-04T03:03:14.755Z,7.60
2023-10-04T03:04:19.870Z,8.20
2023-10-04T03:05:24.825Z,7.70
2023-10-04T03:06:29.076Z,7.60
2023-10-04T03:07:32.760Z,8.50
2023-10-04T03:08:36.172Z,8.20
2023-10-04T03:09:44.177Z,8.90
2023-10-04T03:10:51.840Z,8.20
2023-10-04T03:11:55.974Z,8.60
2023-10-04T03:13:01.854Z,8.70
2023-10-04T03:14:07.667Z,8.50
2023-10-04T03:15:13.742Z,8.10
2023-10-04T03:16:17.700Z,8.20
2023-10-04T03:17:23.799Z,7.40
2023-10-04T03:18:27.630Z,7.60
2023-10-04T03:19:31.625Z,7.30
2023-10-04T03:20:36.274Z,7.40
2023-10-04T03:21:46.004Z,7.30
2023-10-04T03:22:50.752Z,7.50
2023-10-04T03:23:56.421Z,7.20
2023-10-04T03:25:01.603Z,8.20
2023-10-04T03:26:05.072Z,8.20
2023-10-04T03:27:09.364Z,7.90
2023-10-04T03:28:14.309Z,8.00
2023-10-04T03:29:18.606Z,7.80
2023-10-04T03:30:22.022Z,7.50
2023-10-04T03:31:25.925Z,7.90
2023-10-04T03:32:29.861Z,8.90
2023-10-04T03:33:34.190Z,7.50
2023-10-04T03:34:39.083Z,7.60
2023-10-04T03:35:44.651Z,8.00
2023-10-04T03:36:48.284Z,8.80
2023-10-04T03:38:03.254Z,9.40
2023-10-04T03:40:16.444Z,8.10
2023-10-04T03:41:22.458Z,8.50
2023-10-04T03:42:25.867Z,9.40
2023-10-04T03:43:29.226Z,8.80
2023-10-04T03:44:32.806Z,8.60
2023-10-04T03:45:41.069Z,8.80
2023-10-04T03:46:44.557Z,8.30
2023-10-04T03:47:51.013Z,8.30
2023-10-04T03:48:55.568Z,8.20
2023-10-04T03:49:59.304Z,8.40
2023-10-04T03:51:03.199Z,8.90
2023-10-04T03:52:07.503Z,8.30
2023-10-04T03:53:11.665Z,8.50
2023-10-04T03:54:15.005Z,8.80
2023-10-04T03:55:20.950Z,8.80
2023-10-04T03:56:26.613Z,9.40
2023-10-04T03:57:31.209Z,9.10
2023-10-04T03:58:35.851Z,9.70
2023-10-04T03:59:39.740Z,9.60
2023-10-04T04:00:44.826Z,10.70
2023-10-04T04:01:48.404Z,8.80
2023-10-04T04:02:53.710Z,8.80
2023-10-04T04:04:03.551Z,9.20
2023-10-04T04:05:10.658Z,8.80
2023-10-04T04:06:16.328Z,8.90
2023-10-04T04:07:19.997Z,9.10
2023-10-04T04:08:23.738Z,10.00
2023-10-04T04:09:29.671Z,8.50
2023-10-04T04:10:34.206Z,8.90
2023-10-04T04:11:37.961Z,9.50
2023-10-04T04:12:42.905Z,9.60
2023-10-04T04:13:47.460Z,8.70
2023-10-04T04:14:55.076Z,9.00
2023-10-04T04:15:59.170Z,8.60
2023-10-04T04:17:03.670Z,9.10
2023-10-04T04:18:12.242Z,8.20
2023-10-04T04:19:16.058Z,8.90
2023-10-04T04:20:20.761Z,9.20
2023-10-04T04:21:25.684Z,8.80
2023-10-04T04:22:29.560Z,8.10
2023-10-04T04:23:32.986Z,8.90
2023-10-04T04:24:37.118Z,8.60
2023-10-04T04:25:41.242Z,8.60
2023-10-04T04:26:47.600Z,8.10
2023-10-04T04:27:52.137Z,8.70
2023-10-04T04:28:56.047Z,9.30
2023-10-04T04:30:04.264Z,9.40
2023-10-04T04:31:20.750Z,9.80
2023-10-04T04:32:28.409Z,10.00
2023-10-04T04:33:31.756Z,8.80
2023-10-04T04:34:35.448Z,8.70
2023-10-04T04:35:47.828Z,9.10
2023-10-04T04:36:51.791Z,8.90
2023-10-04T04:37:57.330Z,9.80
2023-10-04T04:39:06.116Z,10.70
2023-10-04T04:40:18.180Z,9.70
2023-10-04T04:41:30.531Z,9.80
2023-10-04T04:42:36.630Z,11.40
2023-10-04T04:43:40.135Z,11.10
2023-10-04T04:44:45.943Z,11.00
2023-10-04T04:45:51.976Z,12.40
2023-10-04T04:46:57.289Z,10.70
2023-10-04T04:48:01.490Z,9.40
2023-10-04T04:49:05.429Z,10.40
2023-10-04T04:50:11.226Z,10.30
2023-10-04T04:51:16.334Z,10.20
2023-10-04T04:52:19.825Z,10.10
2023-10-04T04:53:24.604Z,11.10
2023-10-04T04:54:28.470Z,10.60
2023-10-04T04:55:33.992Z,11.20
2023-10-04T04:56:38.553Z,10.80
2023-10-04T04:57:42.156Z,10.60
2023-10-04T04:58:52.817Z,10.90
2023-10-04T04:59:58.086Z,10.10
2023-10-04T05:01:08.862Z,11.20
2023-10-04T05:02:12.218Z,11.10
2023-10-04T05:03:16.177Z,11.30
2023-10-04T05:04:24.191Z,10.90
2023-10-04T05:05:30.483Z,10.10
2023-10-04T05:06:34.210Z,10.30
2023-10-04T05:07:39.940Z,10.20
2023-10-04T05:08:44.083Z,10.80
2023-10-04T05:09:47.974Z,12.50
2023-10-04T05:10:55.447Z,10.30
2023-10-04T05:11:59.038Z,10.50
2023-10-04T05:13:03.126Z,9.80
2023-10-04T05:14:07.951Z,10.70
2023-10-04T05:15:23.463Z,11.50
2023-10-04T05:16:26.912Z,11.80
2023-10-04T05:17:30.440Z,10.60
2023-10-04T05:18:36.060Z,10.50
2023-10-04T05:19:39.760Z,10.90
2023-10-04T05:20:44.259Z,10.40
2023-10-04T05:21:47.702Z,10.60
2023-10-04T05:22:53.093Z,10.10
2023-10-04T05:23:57.122Z,10.40
2023-10-04T05:25:00.850Z,11.80
2023-10-04T05:26:06.324Z,10.00
2023-10-04T05:27:10.107Z,10.70
2023-10-04T05:28:15.103Z,11.00
2023-10-04T05:29:18.624Z,11.20
2023-10-04T05:30:24.189Z,11.00
2023-10-04T05:31:27.903Z,11.40
2023-10-04T05:32:32.019Z,11.30
2023-10-04T05:33:36.364Z,12.10
2023-10-04T05:34:40.098Z,11.80
2023-10-04T05:35:45.598Z,12.20
2023-10-04T05:36:50.059Z,11.20
2023-10-04T05:37:53.846Z,11.70
2023-10-04T05:38:58.065Z,10.90
2023-10-04T05:40:01.744Z,12.10
2023-10-04T05:41:05.251Z,11.10
2023-10-04T05:42:09.813Z,11.90
2023-10-04T05:43:14.731Z,11.70
2023-10-04T05:44:18.442Z,11.00
2023-10-04T05:45:28.058Z,12.10
2023-10-04T05:46:33.607Z,11.80
2023-10-04T05:47:37.952Z,12.00
2023-10-04T05:48:41.635Z,11.40
2023-10-04T05:49:45.829Z,12.70
2023-10-04T05:50:50.127Z,11.50
2023-10-04T05:51:55.172Z,11.60
2023-10-04T05:53:01.452Z,10.60
2023-10-04T05:54:10.150Z,10.50
2023-10-04T05:55:17.649Z,10.90
2023-10-04T05:56:23.264Z,11.80
2023-10-04T05:57:29.511Z,10.70
2023-10-04T05:58:35.335Z,11.70
2023-10-04T05:59:39.307Z,11.90
2023-10-04T06:00:53.048Z,11.50
2023-10-04T06:01:58.130Z,11.60
2023-10-04T06:03:06.652Z,10.90
2023-10-04T06:05:19.826Z,11.60
2023-10-04T06:06:24.266Z,12.60
2023-10-04T06:07:30.122Z,12.10
2023-10-04T06:08:34.918Z,11.60
2023-10-04T06:09:43.851Z,12.10
2023-10-04T06:11:51.599Z,10.80
2023-10-04T06:12:56.507Z,11.10
2023-10-04T06:14:00.372Z,10.70
2023-10-04T06:15:05.282Z,12.30
2023-10-04T06:16:11.262Z,11.60
2023-10-04T06:17:16.982Z,11.00
2023-10-04T06:18:22.975Z,12.80
2023-10-04T06:19:30.742Z,11.60
2023-10-04T06:20:36.996Z,11.90
2023-10-04T06:21:44.025Z,11.70
2023-10-04T06:22:48.234Z,10.70
2023-10-04T06:23:53.046Z,11.70
2023-10-04T06:24:57.366Z,11.20
2023-10-04T06:26:01.503Z,10.90
2023-10-04T06:27:06.014Z,10.80
2023-10-04T06:28:10.686Z,10.40
2023-10-04T06:29:15.576Z,10.20
2023-10-04T06:30:23.609Z,10.50
2023-10-04T06:31:27.538Z,10.70
2023-10-04T06:32:40.353Z,11.20
2023-10-04T06:33:43.958Z,11.20
2023-10-04T06:34:49.016Z,10.30
2023-10-04T06:35:52.786Z,9.80
2023-10-04T06:36:56.387Z,9.60
2023-10-04T06:38:01.096Z,10.20
2023-10-04T06:39:07.933Z,10.00
2023-10-04T06:40:17.029Z,10.20
2023-10-04T06:41:25.126Z,10.60
2023-10-04T06:42:29.530Z,11.40
2023-10-04T06:43:32.850Z,8.90
2023-10-04T06:44:36.769Z,9.30
2023-10-04T06:45:41.310Z,9.20
2023-10-04T06:46:45.881Z,9.90
2023-10-04T06:47:51.038Z,9.80
2023-10-04T06:48:55.101Z,10.40
2023-10-04T06:50:03.204Z,9.10
2023-10-04T06:51:06.650Z,9.70
2023-10-04T06:52:10.047Z,9.50
2023-10-04T06:53:14.150Z,9.90
2023-10-04T06:54:20.989Z,9.70
2023-10-04T06:55:24.706Z,9.80
2023-10-04T06:56:28.884Z,8.90
2023-10-04T06:57:33.188Z,9.90
2023-10-04T06:58:38.572Z,10.40
2023-10-04T06:59:41.936Z,9.90
2023-10-04T07:00:45.693Z,10.10
2023-10-04T07:01:49.328Z,9.90
2023-10-04T07:02:55.291Z,9.90
2023-10-04T07:03:59.650Z,9.80
2023-10-04T07:05:05.734Z,10.30
2023-10-04T07:06:09.682Z,9.70
2023-10-04T07:07:14.859Z,9.40
2023-10-04T07:08:18.553Z,9.50
2023-10-04T07:09:22.235Z,8.70
2023-10-04T07:10:27.136Z,9.30
2023-10-04T07:11:31.093Z,9.80
2023-10-04T07:12:34.641Z,10.00
2023-10-04T07:13:40.604Z,10.50
2023-10-04T07:14:46.807Z,9.70
2023-10-04T07:15:53.815Z,9.90
2023-10-04T07:16:58.141Z,9.30
2023-10-04T07:18:04.958Z,9.80
2023-10-04T07:19:08.668Z,9.50
2023-10-04T07:20:20.512Z,10.30
2023-10-04T07:21:24.277Z,11.00
2023-10-04T07:22:33.676Z,10.70
2023-10-04T07:23:43.443Z,9.90
2023-10-04T07:24:48.905Z,9.60
2023-10-04T07:25:52.564Z,10.50
2023-10-04T07:26:56.094Z,10.60
2023-10-04T07:28:03.609Z,9.90
2023-10-04T07:29:08.521Z,10.40
2023-10-04T07:30:13.867Z,10.20
2023-10-04T07:31:19.246Z,10.90
2023-10-04T07:32:23.247Z,10.50
2023-10-04T07:33:26.802Z,11.00
2023-10-04T07:34:34.639Z,10.20
2023-10-04T07:35:40.213Z,10.90
2023-10-04T07:36:43.900Z,11.60
2023-10-04T07:37:48.441Z,10.70
2023-10-04T07:38:52.908Z,11.40
2023-10-04T07:39:56.832Z,11.00
2023-10-04T07:41:00.054Z,9.80
2023-10-04T07:42:04.200Z,10.60
2023-10-04T07:43:08.012Z,10.60
2023-10-04T07:44:12.303Z,10.90
2023-10-04T07:45:18.719Z,10.90
2023-10-04T07:46:24.817Z,12.30
2023-10-04T07:47:28.703Z,12.80
2023-10-04T07:48:32.348Z,11.20
2023-10-04T07:49:36.832Z,12.00
2023-10-04T07:50:40.696Z,12.70
2023-10-04T07:51:44.409Z,12.40
2023-10-04T07:52:47.709Z,13.00
2023-10-04T07:53:53.548Z,12.70
2023-10-04T07:54:59.827Z,12.90
2023-10-04T07:56:03.729Z,13.50
2023-10-04T07:57:07.818Z,12.70
2023-10-04T07:58:12.892Z,12.00
2023-10-04T07:59:18.472Z,12.60
2023-10-04T08:00:22.377Z,12.90
2023-10-04T08:01:25.698Z,12.10
2023-10-04T08:02:30.977Z,12.80
2023-10-04T08:03:34.881Z,10.80
2023-10-04T08:04:38.640Z,11.90
2023-10-04T08:05:43.706Z,11.60
2023-10-04T08:06:52.630Z,12.10
2023-10-04T08:08:00.000Z,11.40
2023-10-04T08:09:07.032Z,12.40
2023-10-04T08:10:14.918Z,11.10
2023-10-04T08:11:18.817Z,11.80
2023-10-04T08:12:22.423Z,11.30
2023-10-04T08:13:27.937Z,11.40
2023-10-04T08:14:31.970Z,11.20
2023-10-04T08:15:37.533Z,11.10
2023-10-04T08:16:42.254Z,12.00
2023-10-04T08:17:51.731Z,11.50
2023-10-04T08:20:00.132Z,10.00
2023-10-04T08:21:06.642Z,11.00
2023-10-04T08:22:10.307Z,10.90
2023-10-04T08:23:14.735Z,11.00
2023-10-04T08:24:19.127Z,10.60
2023-10-04T08:25:29.663Z,11.50
2023-10-04T08:26:34.281Z,10.60
2023-10-04T08:27:39.777Z,9.00
2023-10-04T08:28:44.974Z,10.40
2023-10-04T08:29:49.129Z,10.50
2023-10-04T08:30:52.584Z,10.80
2023-10-04T08:31:58.172Z,9.70
2023-10-04T08:33:03.149Z,10.30
2023-10-04T08:34:06.860Z,9.80
2023-10-04T08:35:22.021Z,9.70
2023-10-04T08:36:25.266Z,9.00
2023-10-04T08:37:29.157Z,8.80
2023-10-04T08:38:32.490Z,7.70
2023-10-04T08:39:37.540Z,8.40
2023-10-04T08:40:44.111Z,8.20
2023-10-04T08:41:49.261Z,8.70
2023-10-04T08:42:53.262Z,8.70
2023-10-04T08:43:57.158Z,8.10
2023-10-04T08:45:01.051Z,8.00
2023-10-04T08:46:09.610Z,8.70
2023-10-04T08:47:16.838Z,8.00
2023-10-04T08:48:22.502Z,8.20
2023-10-04T08:49:28.761Z,8.20
2023-10-04T08:50:39.542Z,7.90
2023-10-04T08:51:51.133Z,7.90
2023-10-04T08:53:05.101Z,7.90
2023-10-04T08:54:15.701Z,8.20
2023-10-04T08:55:22.822Z,7.00
2023-10-04T08:56:34.689Z,7.90
2023-10-04T08:57:39.857Z,7.70
2023-10-04T08:58:44.882Z,7.80
2023-10-04T08:59:50.631Z,7.40
2023-10-04T09:00:54.969Z,8.50
2023-10-04T09:02:02.312Z,7.20
2023-10-04T09:03:07.989Z,7.50
2023-10-04T09:04:19.122Z,7.40
2023-10-04T09:05:27.922Z,7.50
2023-10-04T09:06:31.541Z,7.80
2023-10-04T09:07:36.407Z,7.60
2023-10-04T09:08:41.416Z,7.80
2023-10-04T09:09:47.429Z,7.50
2023-10-04T09:10:55.015Z,7.20
2023-10-04T09:11:59.262Z,7.60
2023-10-04T09:13:05.202Z,6.90
2023-10-04T09:14:09.372Z,6.90
2023-10-04T09:15:14.435Z,6.60
2023-10-04T09:16:30.090Z,6.00
2023-10-04T09:17:57.793Z,6.30
2023-10-04T09:19:09.514Z,6.40
2023-10-04T09:20:16.387Z,6.10
2023-10-04T09:21:19.554Z,5.80
2023-10-04T09:22:32.200Z,5.40
2023-10-04T09:23:36.155Z,5.50
2023-10-04T09:24:56.954Z,5.60
2023-10-04T09:26:00.368Z,5.90
2023-10-04T09:27:05.193Z,5.60
2023-10-04T09:28:10.635Z,5.40
2023-10-04T09:29:17.965Z,5.30
2023-10-04T09:30:23.062Z,5.60
2023-10-04T09:31:27.708Z,7.20
2023-10-04T09:32:43.691Z,5.30
2023-10-04T09:33:47.487Z,5.70
2023-10-04T09:35:00.889Z,5.60
2023-10-04T09:36:07.436Z,6.00
2023-10-04T09:37:20.477Z,5.50
2023-10-04T09:38:29.920Z,6.20
2023-10-04T09:39:33.732Z,5.80
2023-10-04T09:40:37.183Z,5.60
2023-10-04T09:41:42.747Z,6.20
2023-10-04T09:42:48.058Z,5.20
2023-10-04T09:43:54.598Z,5.60
2023-10-04T09:45:10.377Z,5.10
2023-10-04T09:46:14.310Z,5.70
2023-10-04T09:47:18.546Z,5.30
2023-10-04T09:48:24.044Z,4.90
2023-10-04T09:49:36.313Z,4.70
2023-10-04T09:50:41.306Z,5.30
2023-10-04T09:51:47.893Z,5.60
2023-10-04T09:52:52.032Z,5.20
2023-10-04T09:53:56.171Z,4.90
2023-10-04T09:54:59.750Z,5.50
2023-10-04T09:56:06.823Z,5.40
2023-10-04T09:57:14.933Z,5.00
2023-10-04T09:58:23.661Z,5.40
2023-10-04T09:59:32.482Z,5.10
2023-10-04T10:01:40.322Z,5.00
2023-10-04T10:02:45.796Z,4.80
2023-10-04T10:03:56.273Z,4.70
2023-10-04T10:05:03.005Z,5.10
2023-10-04T10:06:10.464Z,4.90
2023-10-04T10:07:21.355Z,5.00
2023-10-04T10:08:32.585Z,4.40
2023-10-04T10:09:59.747Z,4.80
2023-10-04T10:11:07.533Z,4.40
2023-10-04T10:12:15.369Z,5.10
2023-10-04T10:13:22.608Z,5.50
2023-10-04T10:14:30.692Z,4.70
2023-10-04T10:15:34.797Z,4.70
2023-10-04T10:16:42.911Z,5.80
2023-10-04T10:17:50.169Z,4.20
2023-10-04T10:18:58.107Z,4.60
2023-10-04T10:20:04.841Z,5.20
2023-10-04T10:21:09.410Z,6.00
2023-10-04T10:22:17.798Z,5.30
2023-10-04T10:24:24.606Z,5.60
2023-10-04T10:25:31.007Z,4.90
2023-10-04T10:26:34.368Z,5.00
2023-10-04T10:27:38.341Z,5.30
2023-10-04T10:28:43.126Z,6.20
2023-10-04T10:29:50.187Z,5.80
2023-10-04T10:31:03.086Z,4.80
2023-10-04T10:32:23.289Z,4.70
2023-10-04T10:33:27.055Z,5.10
2023-10-04T10:34:31.298Z,4.80
2023-10-04T10:36:00.517Z,4.40
2023-10-04T10:37:16.326Z,4.70
2023-10-04T10:38:45.918Z,4.50
2023-10-04T10:39:51.478Z,4.00
2023-10-04T10:40:55.530Z,4.10
2023-10-04T10:41:59.506Z,4.70
2023-10-04T10:43:09.428Z,4.80
2023-10-04T10:44:20.366Z,3.00
2023-10-04T10:45:29.230Z,3.80
2023-10-04T10:46:33.320Z,3.40
2023-10-04T10:47:49.659Z,3.90
2023-10-04T10:49:03.900Z,3.20
2023-10-04T10:50:38.254Z,4.00
2023-10-04T10:52:49.416Z,4.00
2023-10-04T10:53:53.020Z,3.70
2023-10-04T10:54:57.607Z,4.10
2023-10-04T10:56:02.720Z,4.10
2023-10-04T10:57:07.681Z,3.70
2023-10-04T10:58:12.670Z,3.50
2023-10-04T10:59:16.042Z,3.70
2023-10-04T11:00:19.204Z,3.40
2023-10-04T11:01:25.050Z,3.30
2023-10-04T11:02:29.247Z,3.60
2023-10-04T11:03:33.332Z,3.50
2023-10-04T11:04:36.814Z,3.80
2023-10-04T11:05:42.659Z,3.50
2023-10-04T11:06:46.757Z,3.50
2023-10-04T11:07:53.219Z,3.50
2023-10-04T11:08:57.007Z,4.20
2023-10-04T11:10:01.978Z,3.90
2023-10-04T11:11:07.628Z,3.90
2023-10-04T11:12:13.654Z,3.80
2023-10-04T11:13:18.735Z,2.90
2023-10-04T11:14:23.981Z,3.50
2023-10-04T11:15:28.933Z,3.80
2023-10-04T11:16:34.669Z,3.40
2023-10-04T11:17:41.714Z,3.40
2023-10-04T11:18:48.105Z,3.10
2023-10-04T11:19:51.744Z,3.40
2023-10-04T11:21:05.265Z,4.20
2023-10-04T11:22:09.029Z,3.90
2023-10-04T11:23:12.560Z,3.60
2023-10-04T11:24:16.537Z,4.40
2023-10-04T11:25:20.766Z,3.70
2023-10-04T11:26:25.743Z,3.90
2023-10-04T11:27:30.840Z,3.90
2023-10-04T11:28:35.809Z,5.00
2023-10-04T11:29:41.946Z,4.60
2023-10-04T11:30:47.751Z,5.50
2023-10-04T11:31:53.741Z,5.00
2023-10-04T11:32:59.211Z,4.50
2023-10-04T11:34:05.277Z,4.10
2023-10-04T11:35:12.616Z,4.50
2023-10-04T11:36:22.103Z,4.20
2023-10-04T11:37:29.922Z,3.50
2023-10-04T11:38:33.663Z,3.60
2023-10-04T11:39:40.890Z,4.10
2023-10-04T11:40:48.877Z,3.70
2023-10-04T11:41:51.965Z,3.40
2023-10-04T11:43:02.460Z,4.10
2023-10-04T11:44:08.545Z,4.00
2023-10-04T11:45:21.822Z,4.20
2023-10-04T11:46:25.444Z,4.10
2023-10-04T11:47:32.845Z,3.90
2023-10-04T11:48:36.818Z,3.90
2023-10-04T11:49:56.208Z,4.20
2023-10-04T11:50:59.529Z,3.80
2023-10-04T11:52:06.080Z,4.00
2023-10-04T11:53:12.719Z,4.40
2023-10-04T11:54:15.963Z,4.50
2023-10-04T11:55:28.613Z,3.90
2023-10-04T11:56:41.383Z,4.20
2023-10-04T11:57:45.522Z,3.70
2023-10-04T11:58:52.006Z,4.20
2023-10-04T11:59:57.986Z,3.20
2023-10-04T12:01:07.833Z,3.90
2023-10-04T12:02:11.278Z,4.00
2023-10-04T12:03:15.265Z,4.70
2023-10-04T12:04:19.037Z,4.10
2023-10-04T12:05:23.105Z,3.60
2023-10-04T12:06:27.147Z,4.00
2023-10-04T12:07:33.565Z,3.70
2023-10-04T12:08:40.321Z,4.00
2023-10-04T12:09:44.402Z,4.20
2023-10-04T12:10:48.309Z,3.70
2023-10-04T12:11:52.067Z,3.60
2023-10-04T12:12:58.516Z,4.50
2023-10-04T12:14:02.107Z,3.90
2023-10-04T12:15:08.625Z,3.50
2023-10-04T12:16:14.914Z,3.90
2023-10-04T12:17:19.990Z,3.80
2023-10-04T12:18:23.494Z,3.30
2023-10-04T12:19:27.337Z,3.70
2023-10-04T12:20:37.583Z,3.50
2023-10-04T12:21:42.390Z,4.10
2023-10-04T12:22:46.408Z,3.70
2023-10-04T12:23:50.500Z,3.80
2023-10-04T12:24:55.182Z,3.30
2023-10-04T12:25:58.646Z,3.90
2023-10-04T12:27:02.272Z,3.80
2023-10-04T12:28:09.213Z,3.90
2023-10-04T12:29:14.158Z,3.20
2023-10-04T12:30:19.407Z,3.90
2023-10-04T12:31:24.719Z,3.80
2023-10-04T12:32:30.725Z,3.60
2023-10-04T12:33:37.567Z,3.80
2023-10-04T12:34:41.203Z,3.60
2023-10-04T12:35:44.294Z,3.70
2023-10-04T12:37:57.925Z,3.60
2023-10-04T12:39:06.109Z,4.50
2023-10-04T12:40:33.280Z,4.30
2023-10-04T12:42:41.367Z,3.30
2023-10-04T12:43:45.617Z,3.80
2023-10-04T12:44:49.261Z,3.90
2023-10-04T12:45:57.632Z,3.60
2023-10-04T12:47:03.117Z,3.80
2023-10-04T12:48:08.660Z,3.90
2023-10-04T12:49:12.192Z,3.40
2023-10-04T12:50:16.308Z,3.50
2023-10-04T12:51:20.340Z,3.40
2023-10-04T12:52:26.411Z,3.80
2023-10-04T12:53:30.726Z,4.00
2023-10-04T12:54:35.485Z,3.40
2023-10-04T12:55:40.733Z,3.40
2023-10-04T12:56:47.168Z,3.60
2023-10-04T12:57:50.628Z,3.40
2023-10-04T12:58:54.225Z,3.50
2023-10-04T12:59:59.664Z,4.00
2023-10-04T13:01:07.450Z,4.20
2023-10-04T13:02:10.953Z,3.70
2023-10-04T13:03:14.825Z,3.90
2023-10-04T13:04:18.567Z,3.80
2023-10-04T13:05:23.343Z,3.80
2023-10-04T13:06:27.178Z,4.20
2023-10-04T13:07:33.287Z,3.20
2023-10-04T13:08:38.545Z,3.30
2023-10-04T13:09:57.845Z,3.80
2023-10-04T13:11:05.568Z,3.40
2023-10-04T13:12:09.183Z,3.50
2023-10-04T13:13:13.486Z,3.30
2023-10-04T13:14:16.995Z,3.50
2023-10-04T13:15:22.052Z,3.60
2023-10-04T13:16:25.531Z,4.20
2023-10-04T13:17:29.468Z,3.50
2023-10-04T13:18:33.818Z,3.70
2023-10-04T13:19:37.981Z,3.60
2023-10-04T13:20:41.568Z,3.60
2023-10-04T13:21:45.339Z,4.50
2023-10-04T13:22:50.510Z,4.30
2023-10-04T13:23:54.041Z,4.30
2023-10-04T13:24:58.519Z,4.10
2023-10-04T13:26:02.635Z,4.10
2023-10-04T13:27:05.927Z,3.90
2023-10-04T13:28:17.446Z,4.10
2023-10-04T13:29:22.105Z,3.90
2023-10-04T13:30:28.668Z,3.80
2023-10-04T13:31:32.545Z,3.80
2023-10-04T13:32:38.228Z,4.20
2023-10-04T13:33:41.892Z,4.00
2023-10-04T13:34:46.072Z,4.20
2023-10-04T13:35:52.308Z,4.00
2023-10-04T13:36:57.037Z,3.70
2023-10-04T13:38:00.932Z,4.10
2023-10-04T13:39:05.508Z,3.80
2023-10-04T13:40:20.759Z,4.00
2023-10-04T13:41:24.303Z,3.90
2023-10-04T13:42:29.266Z,3.50
2023-10-04T13:43:33.729Z,3.70
2023-10-04T13:44:38.237Z,3.80
2023-10-04T13:45:41.948Z,3.70
2023-10-04T13:46:49.427Z,3.60
2023-10-04T13:47:53.341Z,3.50
2023-10-04T13:48:59.619Z,3.40
2023-10-04T13:50:06.066Z,3.80
2023-10-04T13:51:10.716Z,3.40
2023-10-04T13:52:15.457Z,4.10
2023-10-04T13:53:20.833Z,3.40
2023-10-04T13:54:24.752Z,3.30
2023-10-04T13:55:28.652Z,3.50
2023-10-04T13:56:32.237Z,3.40
2023-10-04T13:57:38.738Z,3.70
2023-10-04T13:58:42.947Z,3.60
2023-10-04T13:59:46.668Z,3.30
2023-10-04T14:00:56.592Z,24.10
2023-10-04T14:02:02.467Z,15.60
2023-10-04T14:03:06.714Z,5.50
2023-10-04T14:04:10.150Z,8.60
2023-10-04T14:05:19.579Z,4.30
2023-10-04T14:06:23.143Z,4.30
2023-10-04T14:07:27.483Z,4.10
2023-10-04T14:08:31.235Z,4.50
2023-10-04T14:09:35.720Z,4.60
2023-10-04T14:10:43.916Z,3.90
2023-10-04T14:11:47.747Z,4.20
2023-10-04T14:12:57.702Z,4.70
2023-10-04T14:14:01.075Z,4.30
2023-10-04T14:15:14.385Z,4.40
2023-10-04T14:16:20.667Z,4.30
2023-10-04T14:17:26.934Z,4.30
2023-10-04T14:18:32.152Z,5.20
2023-10-04T14:19:38.605Z,4.50
2023-10-04T14:20:42.844Z,4.50
2023-10-04T14:21:46.193Z,4.40
2023-10-04T14:22:50.400Z,4.20
2023-10-04T14:23:54.590Z,4.00
2023-10-04T14:25:00.638Z,4.40
2023-10-04T14:26:06.305Z,3.90
2023-10-04T14:27:09.788Z,4.60
2023-10-04T14:28:13.159Z,4.20
2023-10-04T14:29:17.200Z,4.60
2023-10-04T14:30:24.439Z,4.60
2023-10-04T14:31:28.162Z,4.70
2023-10-04T14:32:31.522Z,4.10
2023-10-04T14:33:35.097Z,4.40
2023-10-04T14:34:39.001Z,4.30
2023-10-04T14:35:44.480Z,4.70
2023-10-04T14:36:48.846Z,4.20
2023-10-04T14:37:53.353Z,4.70
2023-10-04T14:38:57.057Z,4.10
2023-10-04T14:40:02.874Z,4.50
2023-10-04T14:41:07.045Z,4.80